createdAt,value
2019-03-24T00:05:00.803Z,8.98
2019-03-24T00:10:03.303Z,8.76
2019-03-24T00:15:05.770Z,8.85
2019-03-24T00:20:10.130Z,8.86
2019-03-24T00:25:10.707Z,8.68
2019-03-24T00:30:13.181Z,8.60
2019-03-24T00:35:15.664Z,8.41
2019-03-24T00:40:18.138Z,8.42
2019-03-24T00:45:20.641Z,8.29
2019-03-24T00:50:23.156Z,8.26
2019-03-24T00:55:25.620Z,8.09
2019-03-24T01:00:46.341Z,8.11
2019-03-24T01:05:48.810Z,8.08
2019-03-24T01:10:51.279Z,7.93
2019-03-24T01:15:53.754Z,7.94
2019-03-24T01:20:56.227Z,7.72
2019-03-24T01:25:58.694Z,7.61
2019-03-24T01:31:01.291Z,7.64
2019-03-24T01:36:03.787Z,7.66
2019-03-24T01:41:08.067Z,7.51
2019-03-24T01:46:08.763Z,7.49
2019-03-24T01:51:11.219Z,7.48
2019-03-24T01:56:13.687Z,7.46
2019-03-24T02:01:16.151Z,7.32
2019-03-24T02:06:18.616Z,7.28
2019-03-24T02:11:21.086Z,7.11
2019-03-24T02:16:23.556Z,7.05
2019-03-24T02:21:26.072Z,7.01
2019-03-24T02:26:28.539Z,6.97
2019-03-24T02:31:31.040Z,6.95
2019-03-24T02:36:33.513Z,6.89
2019-03-24T02:41:35.977Z,6.82
2019-03-24T02:46:38.449Z,6.82
2019-03-24T02:51:40.926Z,6.78
2019-03-24T02:56:43.391Z,6.67
2019-03-24T03:01:45.873Z,6.70
2019-03-24T03:06:48.335Z,6.65
2019-03-24T03:11:50.826Z,6.51
2019-03-24T03:16:53.308Z,6.44
2019-03-24T03:21:55.768Z,6.40
2019-03-24T03:26:58.252Z,6.34
2019-03-24T03:32:00.756Z,6.30
2019-03-24T03:37:03.353Z,6.29
2019-03-24T03:42:05.720Z,6.27
2019-03-24T03:47:08.186Z,6.36
2019-03-24T03:52:10.659Z,6.12
2019-03-24T03:57:13.128Z,6.17
2019-03-24T04:02:15.597Z,6.08
2019-03-24T04:07:18.064Z,6.26
2019-03-24T04:12:20.535Z,6.14
2019-03-24T04:17:23.007Z,6.04
2019-03-24T04:22:25.473Z,6.09
2019-03-24T04:27:28.188Z,6.02
2019-03-24T04:32:30.648Z,6.03
2019-03-24T04:37:33.250Z,6.07
2019-03-24T04:42:35.591Z,6.03
2019-03-24T04:47:38.185Z,5.96
2019-03-24T04:52:40.651Z,5.68
2019-03-24T04:57:43.115Z,5.52
2019-03-24T05:02:45.592Z,5.40
2019-03-24T05:07:48.060Z,5.44
2019-03-24T05:12:50.536Z,5.52
2019-03-24T05:17:53.015Z,5.61
2019-03-24T05:22:55.482Z,5.52
2019-03-24T05:27:57.948Z,5.54
2019-03-24T05:33:00.415Z,5.51
2019-03-24T05:38:02.998Z,5.52
2019-03-24T05:43:05.476Z,5.68
2019-03-24T05:48:07.954Z,5.67
2019-03-24T05:53:10.429Z,5.74
2019-03-24T05:58:12.912Z,6.01
2019-03-24T06:03:15.390Z,6.10
2019-03-24T06:08:17.867Z,6.21
2019-03-24T06:13:20.336Z,6.55
2019-03-24T06:18:22.853Z,6.74
2019-03-24T06:23:25.397Z,7.11
2019-03-24T06:28:27.865Z,7.38
2019-03-24T06:33:30.341Z,7.94
2019-03-24T06:38:32.850Z,8.41
2019-03-24T06:43:35.338Z,9.00
2019-03-24T06:48:37.836Z,9.52
2019-03-24T06:53:40.306Z,10.02
2019-03-24T06:58:42.798Z,10.48
2019-03-24T07:03:45.279Z,10.95
2019-03-24T07:08:47.782Z,11.38
2019-03-24T07:13:50.267Z,11.78
2019-03-24T07:18:52.779Z,12.08
2019-03-24T07:23:55.250Z,12.13
2019-03-24T07:28:57.735Z,12.54
2019-03-24T07:34:00.199Z,12.58
2019-03-24T07:39:02.691Z,12.66
2019-03-24T07:44:05.190Z,13.09
2019-03-24T07:49:07.659Z,13.47
2019-03-24T07:54:10.135Z,14.80
2019-03-24T07:59:12.633Z,16.65
2019-03-24T08:04:15.112Z,21.65
2019-03-24T08:09:17.596Z,24.62
2019-03-24T08:14:20.094Z,26.69
2019-03-24T08:19:22.614Z,27.90
2019-03-24T08:24:25.083Z,28.85
2019-03-24T08:29:27.602Z,29.96
2019-03-24T08:34:31.328Z,30.01
2019-03-24T08:39:32.551Z,32.40
2019-03-24T08:44:35.036Z,33.51
2019-03-24T08:49:37.517Z,34.12
2019-03-24T08:54:40.002Z,35.76
2019-03-24T08:59:42.487Z,36.55
2019-03-24T09:04:44.960Z,35.38
2019-03-24T09:09:47.445Z,35.88
2019-03-24T09:14:49.936Z,36.37
2019-03-24T09:19:52.406Z,38.05
2019-03-24T09:24:54.918Z,38.71
2019-03-24T09:29:57.425Z,37.53
2019-03-24T09:34:59.912Z,36.37
2019-03-24T09:40:02.416Z,37.77
2019-03-24T09:45:04.888Z,38.78
2019-03-24T09:50:07.407Z,39.18
2019-03-24T09:55:09.893Z,40.10
2019-03-24T10:00:12.393Z,40.57
2019-03-24T10:05:14.887Z,38.43
2019-03-24T10:10:17.379Z,40.29
2019-03-24T10:15:19.852Z,40.83
2019-03-24T10:20:22.357Z,41.15
2019-03-24T10:25:24.853Z,39.67
2019-03-24T10:30:27.361Z,39.87
2019-03-24T10:35:29.837Z,40.87
2019-03-24T10:40:32.330Z,41.06
2019-03-24T10:45:34.812Z,37.98
2019-03-24T10:50:37.304Z,40.15
2019-03-24T10:55:39.773Z,40.77
2019-03-24T11:00:42.256Z,38.65
2019-03-24T11:05:44.748Z,38.81
2019-03-24T11:10:47.230Z,33.23
2019-03-24T11:15:49.742Z,29.75
2019-03-24T11:20:52.203Z,28.11
2019-03-24T11:25:54.678Z,27.55
2019-03-24T11:30:57.322Z,25.47
2019-03-24T11:36:02.636Z,24.96
2019-03-24T11:41:05.105Z,24.02
2019-03-24T11:46:07.575Z,23.72
2019-03-24T11:51:10.616Z,23.62
2019-03-24T11:56:13.169Z,23.20
2019-03-24T12:01:15.661Z,22.96
2019-03-24T12:06:18.142Z,23.04
2019-03-24T12:11:23.365Z,23.45
2019-03-24T12:16:25.845Z,23.19
2019-03-24T12:21:28.371Z,22.99
2019-03-24T12:26:30.835Z,22.70
2019-03-24T12:31:33.396Z,22.58
2019-03-24T12:36:35.913Z,23.23
2019-03-24T12:41:38.426Z,22.59
2019-03-24T12:46:40.894Z,22.43
2019-03-24T12:51:43.385Z,21.63
2019-03-24T12:56:45.855Z,21.42
2019-03-24T13:01:48.350Z,21.11
2019-03-24T13:06:50.830Z,20.70
2019-03-24T13:11:53.327Z,21.35
2019-03-24T13:16:55.801Z,21.32
2019-03-24T13:21:58.262Z,20.73
2019-03-24T13:27:00.746Z,20.65
2019-03-24T13:32:03.215Z,20.47
2019-03-24T13:37:05.698Z,20.74
2019-03-24T13:42:08.162Z,20.96
2019-03-24T13:47:10.661Z,20.87
2019-03-24T13:52:13.125Z,20.70
2019-03-24T13:57:15.680Z,20.72
2019-03-24T14:02:18.153Z,20.14
2019-03-24T14:07:20.644Z,19.97
2019-03-24T14:12:23.123Z,19.91
2019-03-24T14:17:25.597Z,19.82
2019-03-24T14:22:28.077Z,19.51
2019-03-24T14:27:34.401Z,19.17
2019-03-24T14:32:36.893Z,18.89
2019-03-24T14:37:39.383Z,18.76
2019-03-24T14:42:41.857Z,18.57
2019-03-24T14:47:44.324Z,18.67
2019-03-24T14:52:46.802Z,18.47
2019-03-24T14:57:49.290Z,18.89
2019-03-24T15:02:51.773Z,18.24
2019-03-24T15:07:54.239Z,17.93
2019-03-24T15:12:56.724Z,18.01
2019-03-24T15:17:59.219Z,17.92
2019-03-24T15:23:01.697Z,17.95
2019-03-24T15:28:04.188Z,17.94
2019-03-24T15:33:06.660Z,17.83
2019-03-24T15:38:09.217Z,17.79
2019-03-24T15:43:11.597Z,17.62
2019-03-24T15:48:14.089Z,17.54
2019-03-24T15:53:16.569Z,17.33
2019-03-24T15:58:19.078Z,17.29
2019-03-24T16:03:21.550Z,17.54
2019-03-24T16:08:24.038Z,17.46
2019-03-24T16:13:26.529Z,17.64
2019-03-24T16:18:29.027Z,17.15
2019-03-24T16:23:31.509Z,16.63
2019-03-24T16:28:33.990Z,16.27
2019-03-24T16:33:37.426Z,16.18
2019-03-24T16:38:48.544Z,16.15
2019-03-24T16:43:42.362Z,16.11
2019-03-24T16:48:44.829Z,15.94
2019-03-24T16:53:47.298Z,15.81
2019-03-24T16:58:49.853Z,15.64
2019-03-24T17:03:52.326Z,15.61
2019-03-24T17:08:54.789Z,15.58
2019-03-24T17:13:57.276Z,15.55
2019-03-24T17:18:59.786Z,15.50
2019-03-24T17:24:02.264Z,15.29
2019-03-24T17:29:04.724Z,15.28
2019-03-24T17:34:07.197Z,15.17
2019-03-24T17:39:09.681Z,15.09
2019-03-24T17:44:12.846Z,14.86
2019-03-24T17:49:14.607Z,14.89
2019-03-24T17:54:17.117Z,14.84
2019-03-24T17:59:19.590Z,14.78
2019-03-24T18:04:24.726Z,14.58
2019-03-24T18:09:26.358Z,14.40
2019-03-24T18:14:27.023Z,14.22
2019-03-24T18:19:29.500Z,14.05
2019-03-24T18:24:31.961Z,13.94
2019-03-24T18:29:34.487Z,13.75
2019-03-24T18:34:36.996Z,13.66
2019-03-24T18:39:39.456Z,13.56
2019-03-24T18:44:41.966Z,13.43
2019-03-24T18:49:44.453Z,13.42
2019-03-24T18:54:46.974Z,13.28
2019-03-24T18:59:49.471Z,13.37
2019-03-24T19:04:51.949Z,13.20
2019-03-24T19:09:54.494Z,13.13
2019-03-24T19:14:56.934Z,13.04
2019-03-24T19:19:59.421Z,12.99
2019-03-24T19:25:01.916Z,12.83
2019-03-24T19:30:10.358Z,12.80
2019-03-24T19:35:12.842Z,12.61
2019-03-24T19:40:27.282Z,12.42
2019-03-24T19:45:29.890Z,12.34
2019-03-24T19:50:32.318Z,12.31
2019-03-24T19:55:34.847Z,12.04
2019-03-24T20:00:37.326Z,11.85
2019-03-24T20:05:39.824Z,11.85
2019-03-24T20:10:42.320Z,11.74
2019-03-24T20:15:44.822Z,11.81
2019-03-24T20:20:47.300Z,11.65
2019-03-24T20:25:49.793Z,11.53
2019-03-24T20:30:52.274Z,11.51
2019-03-24T20:35:54.758Z,11.36
2019-03-24T20:40:57.296Z,11.34
2019-03-24T20:45:59.783Z,11.24
2019-03-24T20:51:02.312Z,11.30
2019-03-24T20:56:04.782Z,11.51
2019-03-24T21:01:07.273Z,11.82
2019-03-24T21:06:09.768Z,11.69
2019-03-24T21:11:12.256Z,11.68
2019-03-24T21:16:14.791Z,11.67
2019-03-24T21:21:17.294Z,11.70
2019-03-24T21:26:19.784Z,11.72
2019-03-24T21:31:22.299Z,11.80
2019-03-24T21:36:24.775Z,12.00
2019-03-24T21:41:28.657Z,12.12
2019-03-24T21:46:29.774Z,12.04
2019-03-24T21:51:32.262Z,12.01
2019-03-24T21:56:34.747Z,12.03
2019-03-24T22:01:37.236Z,11.92
2019-03-24T22:06:39.725Z,11.71
2019-03-24T22:11:42.196Z,11.79
2019-03-24T22:16:44.727Z,11.73
2019-03-24T22:21:47.172Z,11.97
2019-03-24T22:26:49.650Z,12.01
2019-03-24T22:31:52.109Z,11.87
2019-03-24T22:36:54.582Z,11.93
2019-03-24T22:41:57.062Z,11.93
2019-03-24T22:46:59.548Z,11.96
2019-03-24T22:52:07.099Z,11.75
2019-03-24T22:57:04.670Z,11.80
2019-03-24T23:02:07.143Z,11.79
2019-03-24T23:07:09.645Z,11.78
2019-03-24T23:12:12.155Z,11.66
2019-03-24T23:17:14.632Z,11.54
2019-03-24T23:22:17.097Z,11.35
2019-03-24T23:27:19.589Z,11.06
2019-03-24T23:32:22.071Z,10.85
2019-03-24T23:37:24.532Z,10.64
2019-03-24T23:42:27.000Z,10.37
2019-03-24T23:47:29.472Z,10.31
2019-03-24T23:52:31.931Z,9.85
2019-03-24T23:57:34.411Z,9.79
